PWSweather.com
Personal Weather Stations
Station Observations
SKYDIVEKS
Skydive Kansas, Osage City, KS 66523

Skydive KansasOsage City, KS 66523

Lat: 38.636, Lon: -95.803

Elevation: 1080

Station Type: La Crosse

http://www.skydivekansas.com

Latest ConditionsUpdated 7:15:00 PM CDT Thursday, May 26, 2016
Currently Today's Max Today's Min Today's Average
Temperature 66.7°F19.3°C 94.6°F34.8°C 66.7°F19.3°C 76.8°F24.9°C
Dew Point 58.5°F14.7°C 75.6°F24.2°C 57.7°F14.3°C 64.0°F17.8°C
Winds 12.8 mph NE20.6 kmh NE 27.1 mph SSE43.6 kmh SSE - 9.2 mph 14.8 kmh
Wind Gusts 15.4 mph24.8 kmh 34.4 mph55.4 kmh - -
Humidity 75% 76% 54% 65%
Pressure 28.72 in972.6 mb 28.84 in976.6 mb 28.68 in971.2 mb -
Hour Temp Dew Point Humidity Winds Wind Gusts Pressure Precip Precip Rate Daily Precip Total
07:15 PM 66.7°F19.3°C 58.5°F14.7°C 75% 12.8 mph NE20.6 kmh NE 15.4 mph24.8 kmh 28.72 in972.6 mb 0.00 in0.0 mm 0.00 in0.0 mm 0.00 in0.0 mm
07:00 PM 67.6°F19.8°C 59.1°F15.1°C 74% 5.8 mph NE9.3 kmh NE 12.8 mph20.6 kmh 28.72 in972.6 mb 0.00 in0.0 mm 0.00 in0.0 mm 0.00 in0.0 mm
06:45 PM 67.6°F19.8°C 58.7°F14.8°C 73% 9.2 mph NE14.8 kmh NE 11.0 mph17.7 kmh 28.73 in972.9 mb 0.00 in0.0 mm 0.00 in0.0 mm 0.00 in0.0 mm
06:30 PM 68.2°F20.1°C 58.5°F14.7°C 71% 5.4 mph NE8.7 kmh NE 14.1 mph22.7 kmh 28.74 in973.2 mb 0.00 in0.0 mm 0.00 in0.0 mm 0.00 in0.0 mm
06:15 PM 70.0°F21.1°C 58.9°F14.9°C 68% 15.4 mph NE24.8 kmh NE 15.9 mph25.6 kmh 28.74 in973.2 mb 0.00 in0.0 mm 0.00 in0.0 mm 0.00 in0.0 mm
06:00 PM 71.8°F22.1°C 59.8°F15.4°C 66% 2.7 mph NE4.3 kmh NE 15.2 mph24.5 kmh 28.78 in974.6 mb 0.00 in0.0 mm 0.00 in0.0 mm 0.00 in0.0 mm
05:45 PM 73.6°F23.1°C 60.6°F15.9°C 64% 9.8 mph NNE15.8 kmh NNE 18.1 mph29.1 kmh 28.70 in971.9 mb 0.00 in0.0 mm 0.00 in0.0 mm 0.00 in0.0 mm
05:30 PM 75.7°F24.3°C 61.8°F16.6°C 62% 11.2 mph NNE18.0 kmh NNE 22.1 mph35.6 kmh 28.71 in972.2 mb 0.00 in0.0 mm 0.00 in0.0 mm 0.00 in0.0 mm
05:15 PM 78.6°F25.9°C 64.1°F17.8°C 61% 14.1 mph NE22.7 kmh NE 25.1 mph40.4 kmh 28.71 in972.2 mb 0.00 in0.0 mm 0.00 in0.0 mm 0.00 in0.0 mm
05:00 PM 78.1°F25.6°C 64.5°F18.1°C 63% 6.0 mph NE9.7 kmh NE 8.3 mph13.4 kmh 28.73 in972.9 mb 0.00 in0.0 mm 0.00 in0.0 mm 0.00 in0.0 mm
04:45 PM 78.1°F25.6°C 64.9°F18.3°C 64% 7.4 mph SSE11.9 kmh SSE 16.8 mph27.0 kmh 28.73 in972.9 mb 0.00 in0.0 mm 0.00 in0.0 mm 0.00 in0.0 mm
04:30 PM 79.3°F26.3°C 65.6°F18.7°C 63% Calm Calm 6.5 mph10.5 kmh 28.71 in972.2 mb 0.00 in0.0 mm 0.00 in0.0 mm 0.00 in0.0 mm
04:15 PM 81.1°F27.3°C 67.3°F19.6°C 63% 9.6 mph SSE15.4 kmh SSE 30.2 mph48.6 kmh 28.73 in972.9 mb 0.00 in0.0 mm 0.00 in0.0 mm 0.00 in0.0 mm
04:00 PM 81.7°F27.6°C 67.4°F19.7°C 62% 5.6 mph S9.0 kmh S 12.5 mph20.1 kmh 28.72 in972.6 mb 0.00 in0.0 mm 0.00 in0.0 mm 0.00 in0.0 mm
03:45 PM 82.6°F28.1°C 67.7°F19.8°C 61% 11.2 mph S18.0 kmh S 14.1 mph22.7 kmh 28.72 in972.6 mb 0.00 in0.0 mm 0.00 in0.0 mm 0.00 in0.0 mm
03:30 PM 83.5°F28.6°C 68.2°F20.1°C 60% 12.5 mph S20.1 kmh S 19.7 mph31.7 kmh 28.71 in972.2 mb 0.00 in0.0 mm 0.00 in0.0 mm 0.00 in0.0 mm
03:15 PM 84.6°F29.2°C 68.7°F20.4°C 59% 17.7 mph S28.5 kmh S 28.4 mph45.7 kmh 28.69 in971.6 mb 0.00 in0.0 mm 0.00 in0.0 mm 0.00 in0.0 mm
03:00 PM 85.8°F29.9°C 69.3°F20.7°C 58% 8.9 mph S14.3 kmh S 26.2 mph42.2 kmh 28.68 in971.2 mb 0.00 in0.0 mm 0.00 in0.0 mm 0.00 in0.0 mm
02:45 PM 87.8°F31.0°C 70.2°F21.2°C 56% 15.7 mph S25.3 kmh S 21.9 mph35.2 kmh 28.70 in971.9 mb 0.00 in0.0 mm 0.00 in0.0 mm 0.00 in0.0 mm
02:30 PM 90.1°F32.3°C 71.7°F22.1°C 55% 14.3 mph S23.0 kmh S 24.6 mph39.6 kmh 28.72 in972.6 mb 0.00 in0.0 mm 0.00 in0.0 mm 0.00 in0.0 mm
02:15 PM 91.9°F33.3°C 72.8°F22.7°C 54% 15.7 mph S25.3 kmh S 23.0 mph37.0 kmh 28.73 in972.9 mb 0.00 in0.0 mm 0.00 in0.0 mm 0.00 in0.0 mm
02:00 PM 93.9°F34.4°C 74.7°F23.7°C 54% 22.6 mph S36.4 kmh S 31.5 mph50.7 kmh 28.72 in972.6 mb 0.00 in0.0 mm 0.00 in0.0 mm 0.00 in0.0 mm
01:45 PM 94.6°F34.8°C 75.4°F24.1°C 54% 20.6 mph S33.2 kmh S 27.5 mph44.3 kmh 28.73 in972.9 mb 0.00 in0.0 mm 0.00 in0.0 mm 0.00 in0.0 mm
01:30 PM 93.7°F34.3°C 75.6°F24.2°C 56% 18.8 mph S30.3 kmh S 34.4 mph55.4 kmh 28.73 in972.9 mb 0.00 in0.0 mm 0.00 in0.0 mm 0.00 in0.0 mm
01:15 PM 92.7°F33.7°C 74.6°F23.7°C 56% 27.1 mph SSE43.6 kmh SSE 29.8 mph48.0 kmh 28.74 in973.2 mb 0.00 in0.0 mm 0.00 in0.0 mm 0.00 in0.0 mm
01:00 PM 92.8°F33.8°C 74.8°F23.8°C 56% 23.7 mph S38.1 kmh S 31.8 mph51.2 kmh 28.76 in973.9 mb 0.00 in0.0 mm 0.00 in0.0 mm 0.00 in0.0 mm
12:45 PM 91.9°F33.3°C 74.5°F23.6°C 57% 17.9 mph SSE28.8 kmh SSE 23.3 mph37.5 kmh 28.77 in974.3 mb 0.00 in0.0 mm 0.00 in0.0 mm 0.00 in0.0 mm
12:30 PM 92.5°F33.6°C 75.0°F23.9°C 57% 26.6 mph SSE42.8 kmh SSE 26.6 mph42.8 kmh 28.78 in974.6 mb 0.00 in0.0 mm 0.00 in0.0 mm 0.00 in0.0 mm
12:15 PM 91.0°F32.8°C 74.7°F23.7°C 59% 16.1 mph SE25.9 kmh SE 19.0 mph30.6 kmh 28.78 in974.6 mb 0.00 in0.0 mm 0.00 in0.0 mm 0.00 in0.0 mm
12:00 PM 88.9°F31.6°C 73.3°F22.9°C 60% 12.1 mph SE19.5 kmh SE 22.8 mph36.7 kmh 28.78 in974.6 mb 0.00 in0.0 mm 0.00 in0.0 mm 0.00 in0.0 mm
11:45 AM 88.3°F31.3°C 73.3°F22.9°C 61% 17.2 mph SE27.7 kmh SE 19.5 mph31.4 kmh 28.78 in974.6 mb 0.00 in0.0 mm 0.00 in0.0 mm 0.00 in0.0 mm
11:30 AM 88.2°F31.2°C 72.6°F22.6°C 60% 9.4 mph ESE15.1 kmh ESE 14.8 mph23.8 kmh 28.78 in974.6 mb 0.00 in0.0 mm 0.00 in0.0 mm 0.00 in0.0 mm
11:15 AM 87.1°F30.6°C 72.1°F22.3°C 61% 9.2 mph SE14.8 kmh SE 15.0 mph24.1 kmh 28.78 in974.6 mb 0.00 in0.0 mm 0.00 in0.0 mm 0.00 in0.0 mm
11:00 AM 86.7°F30.4°C 72.2°F22.3°C 62% 14.1 mph SE22.7 kmh SE 17.0 mph27.4 kmh 28.78 in974.6 mb 0.00 in0.0 mm 0.00 in0.0 mm 0.00 in0.0 mm
10:45 AM 84.4°F29.1°C 71.3°F21.8°C 65% 10.3 mph ESE16.6 kmh ESE 15.7 mph25.3 kmh 28.79 in974.9 mb 0.00 in0.0 mm 0.00 in0.0 mm 0.00 in0.0 mm
10:30 AM 80.8°F27.1°C 69.7°F20.9°C 69% 17.0 mph SE27.4 kmh SE 19.2 mph30.9 kmh 28.80 in975.3 mb 0.00 in0.0 mm 0.00 in0.0 mm 0.00 in0.0 mm
10:15 AM 77.4°F25.2°C 67.6°F19.8°C 72% 7.4 mph SE11.9 kmh SE 16.1 mph25.9 kmh 28.81 in975.6 mb 0.00 in0.0 mm 0.00 in0.0 mm 0.00 in0.0 mm
10:00 AM 76.1°F24.5°C 66.4°F19.1°C 72% 11.6 mph SE18.7 kmh SE 15.7 mph25.3 kmh 28.81 in975.6 mb 0.00 in0.0 mm 0.00 in0.0 mm 0.00 in0.0 mm
09:45 AM 76.1°F24.5°C 66.4°F19.1°C 72% 6.5 mph SE10.5 kmh SE 15.9 mph25.6 kmh 28.82 in976.0 mb 0.00 in0.0 mm 0.00 in0.0 mm 0.00 in0.0 mm
09:30 AM 74.8°F23.8°C 66.0°F18.9°C 74% 9.4 mph SE15.1 kmh SE 15.2 mph24.5 kmh 28.81 in975.6 mb 0.00 in0.0 mm 0.00 in0.0 mm 0.00 in0.0 mm
09:15 AM 71.6°F22.0°C 63.6°F17.6°C 76% 11.0 mph ESE17.7 kmh ESE 16.8 mph27.0 kmh 28.82 in976.0 mb 0.00 in0.0 mm 0.00 in0.0 mm 0.00 in0.0 mm
09:00 AM 70.2°F21.2°C 62.2°F16.8°C 76% 9.8 mph ESE15.8 kmh ESE 15.2 mph24.5 kmh 28.83 in976.3 mb 0.00 in0.0 mm 0.00 in0.0 mm 0.00 in0.0 mm
08:45 AM 69.4°F20.8°C 61.1°F16.2°C 75% 6.9 mph ESE11.1 kmh ESE 13.9 mph22.4 kmh 28.82 in976.0 mb 0.00 in0.0 mm 0.00 in0.0 mm 0.00 in0.0 mm
08:30 AM 69.1°F20.6°C 60.8°F16.0°C 75% 8.5 mph ESE13.7 kmh ESE 12.3 mph19.8 kmh 28.83 in976.3 mb 0.00 in0.0 mm 0.00 in0.0 mm 0.00 in0.0 mm
08:15 AM 68.9°F20.5°C 60.2°F15.7°C 74% 2.7 mph ESE4.3 kmh ESE 7.6 mph12.2 kmh 28.83 in976.3 mb 0.00 in0.0 mm 0.00 in0.0 mm 0.00 in0.0 mm
08:00 AM 68.7°F20.4°C 60.1°F15.6°C 74% 7.8 mph E12.6 kmh E 10.3 mph16.6 kmh 28.83 in976.3 mb 0.00 in0.0 mm 0.00 in0.0 mm 0.00 in0.0 mm
07:45 AM 68.9°F20.5°C 59.5°F15.3°C 72% 3.6 mph ESE5.8 kmh ESE 6.3 mph10.1 kmh 28.83 in976.3 mb 0.00 in0.0 mm 0.00 in0.0 mm 0.00 in0.0 mm
07:30 AM 69.4°F20.8°C 60.3°F15.7°C 73% 1.6 mph E2.6 kmh E 11.2 mph18.0 kmh 28.82 in976.0 mb 0.00 in0.0 mm 0.00 in0.0 mm 0.00 in0.0 mm
07:15 AM 70.0°F21.1°C 60.1°F15.6°C 71% 8.3 mph E13.4 kmh E 12.3 mph19.8 kmh 28.83 in976.3 mb 0.00 in0.0 mm 0.00 in0.0 mm 0.00 in0.0 mm
07:00 AM 70.0°F21.1°C 60.1°F15.6°C 71% 4.9 mph E7.9 kmh E 10.3 mph16.6 kmh 28.83 in976.3 mb 0.00 in0.0 mm 0.00 in0.0 mm 0.00 in0.0 mm
06:45 AM 70.0°F21.1°C 60.1°F15.6°C 71% 8.3 mph E13.4 kmh E 11.6 mph18.7 kmh 28.84 in976.6 mb 0.00 in0.0 mm 0.00 in0.0 mm 0.00 in0.0 mm
06:30 AM 70.2°F21.2°C 60.3°F15.7°C 71% 6.0 mph E9.7 kmh E 12.8 mph20.6 kmh 28.84 in976.6 mb 0.00 in0.0 mm 0.00 in0.0 mm 0.00 in0.0 mm
06:15 AM 70.0°F21.1°C 60.1°F15.6°C 71% 5.6 mph E9.0 kmh E 10.3 mph16.6 kmh 28.83 in976.3 mb 0.00 in0.0 mm 0.00 in0.0 mm 0.00 in0.0 mm
06:00 AM 69.8°F21.0°C 59.9°F15.5°C 71% 7.6 mph ESE12.2 kmh ESE 8.9 mph14.3 kmh 28.83 in976.3 mb 0.00 in0.0 mm 0.00 in0.0 mm 0.00 in0.0 mm
05:45 AM 69.6°F20.9°C 59.4°F15.2°C 70% 5.1 mph ESE8.2 kmh ESE 8.3 mph13.4 kmh 28.82 in976.0 mb 0.00 in0.0 mm 0.00 in0.0 mm 0.00 in0.0 mm
05:30 AM 69.6°F20.9°C 58.5°F14.7°C 68% 6.5 mph ESE10.5 kmh ESE 8.3 mph13.4 kmh 28.82 in976.0 mb 0.00 in0.0 mm 0.00 in0.0 mm 0.00 in0.0 mm
05:15 AM 70.0°F21.1°C 58.0°F14.4°C 66% 6.7 mph ESE10.8 kmh ESE 8.9 mph14.3 kmh 28.82 in976.0 mb 0.00 in0.0 mm 0.00 in0.0 mm 0.00 in0.0 mm
05:00 AM 70.2°F21.2°C 58.2°F14.6°C 66% 6.0 mph SE9.7 kmh SE 8.1 mph13.0 kmh 28.81 in975.6 mb 0.00 in0.0 mm 0.00 in0.0 mm 0.00 in0.0 mm
04:45 AM 70.3°F21.3°C 58.0°F14.4°C 65% 5.6 mph SSE9.0 kmh SSE 6.0 mph9.7 kmh 28.81 in975.6 mb 0.00 in0.0 mm 0.00 in0.0 mm 0.00 in0.0 mm
04:30 AM 70.5°F21.4°C 57.7°F14.3°C 64% 2.5 mph SSE4.0 kmh SSE 5.6 mph9.0 kmh 28.81 in975.6 mb 0.00 in0.0 mm 0.00 in0.0 mm 0.00 in0.0 mm
04:15 AM 70.7°F21.5°C 57.9°F14.4°C 64% 5.8 mph SSE9.3 kmh SSE 8.5 mph13.7 kmh 28.81 in975.6 mb 0.00 in0.0 mm 0.00 in0.0 mm 0.00 in0.0 mm
04:00 AM 71.2°F21.8°C 58.0°F14.4°C 63% 6.0 mph S9.7 kmh S 9.2 mph14.8 kmh 28.81 in975.6 mb 0.00 in0.0 mm 0.00 in0.0 mm 0.00 in0.0 mm
03:45 AM 71.4°F21.9°C 58.1°F14.5°C 63% 3.6 mph S5.8 kmh S 7.6 mph12.2 kmh 28.81 in975.6 mb 0.00 in0.0 mm 0.00 in0.0 mm 0.00 in0.0 mm
03:30 AM 71.8°F22.1°C 58.5°F14.7°C 63% Calm Calm -- 28.80 in975.3 mb 0.00 in0.0 mm 0.00 in0.0 mm 0.00 in0.0 mm
03:15 AM 71.8°F22.1°C 58.9°F14.9°C 64% Calm Calm 8.9 mph14.3 kmh 28.81 in975.6 mb 0.00 in0.0 mm 0.00 in0.0 mm 0.00 in0.0 mm
03:00 AM 71.8°F22.1°C 58.9°F14.9°C 64% 3.8 mph SSE6.1 kmh SSE 8.9 mph14.3 kmh 28.80 in975.3 mb 0.00 in0.0 mm 0.00 in0.0 mm 0.00 in0.0 mm
02:45 AM 71.8°F22.1°C 58.9°F14.9°C 64% 3.1 mph SE5.0 kmh SE 9.8 mph15.8 kmh 28.80 in975.3 mb 0.00 in0.0 mm 0.00 in0.0 mm 0.00 in0.0 mm
02:30 AM 71.8°F22.1°C 58.9°F14.9°C 64% 4.7 mph SE7.6 kmh SE 6.9 mph11.1 kmh 28.80 in975.3 mb 0.00 in0.0 mm 0.00 in0.0 mm 0.00 in0.0 mm
02:15 AM 71.8°F22.1°C 58.9°F14.9°C 64% 7.4 mph SE11.9 kmh SE 9.6 mph15.4 kmh 28.80 in975.3 mb 0.00 in0.0 mm 0.00 in0.0 mm 0.00 in0.0 mm
02:00 AM 71.8°F22.1°C 58.9°F14.9°C 64% 2.0 mph SSE3.2 kmh SSE 8.9 mph14.3 kmh 28.81 in975.6 mb 0.00 in0.0 mm 0.00 in0.0 mm 0.00 in0.0 mm
01:45 AM 71.8°F22.1°C 59.3°F15.2°C 65% 6.3 mph SE10.1 kmh SE 8.9 mph14.3 kmh 28.81 in975.6 mb 0.00 in0.0 mm 0.00 in0.0 mm 0.00 in0.0 mm
01:30 AM 71.8°F22.1°C 59.3°F15.2°C 65% 3.6 mph ENE5.8 kmh ENE 11.2 mph18.0 kmh 28.82 in976.0 mb 0.00 in0.0 mm 0.00 in0.0 mm 0.00 in0.0 mm
01:15 AM 71.8°F22.1°C 59.8°F15.4°C 66% 3.6 mph E5.8 kmh E 8.9 mph14.3 kmh 28.82 in976.0 mb 0.00 in0.0 mm 0.00 in0.0 mm 0.00 in0.0 mm
01:00 AM 71.6°F22.0°C 59.6°F15.3°C 66% 7.6 mph E12.2 kmh E 11.9 mph19.2 kmh 28.82 in976.0 mb 0.00 in0.0 mm 0.00 in0.0 mm 0.00 in0.0 mm
12:45 AM 72.0°F22.2°C 60.0°F15.6°C 66% 6.3 mph SE10.1 kmh SE 12.1 mph19.5 kmh 28.82 in976.0 mb 0.00 in0.0 mm 0.00 in0.0 mm 0.00 in0.0 mm
12:30 AM 72.5°F22.5°C 59.6°F15.3°C 64% 4.9 mph NE7.9 kmh NE 6.0 mph9.7 kmh 28.83 in976.3 mb 0.00 in0.0 mm 0.00 in0.0 mm 0.00 in0.0 mm
12:15 AM 73.2°F22.9°C 60.3°F15.7°C 64% 5.4 mph NE8.7 kmh NE 5.6 mph9.0 kmh 28.83 in976.3 mb 0.00 in0.0 mm 0.00 in0.0 mm 0.00 in0.0 mm
12:00 AM 74.3°F23.5°C 60.9°F16.1°C 63% 9.2 mph NE14.8 kmh NE 15.0 mph24.1 kmh 28.83 in976.3 mb 0.00 in0.0 mm 0.00 in0.0 mm 0.00 in0.0 mm